createdAt,value
2023-11-01T00:00:53.658Z,25.27
2023-11-01T00:04:55.023Z,25.55
2023-11-01T00:08:57.589Z,25.51
2023-11-01T00:12:58.912Z,25.49
2023-11-01T00:17:00.335Z,25.42
2023-11-01T00:21:01.720Z,25.75
2023-11-01T00:25:03.673Z,25.80
2023-11-01T00:29:05.370Z,24.97
2023-11-01T00:33:06.854Z,25.50
2023-11-01T00:37:08.338Z,25.53
2023-11-01T00:41:09.721Z,25.25
2023-11-01T00:45:11.092Z,25.15
2023-11-01T00:49:12.463Z,25.10
2023-11-01T00:53:13.970Z,24.97
2023-11-01T00:57:15.431Z,25.72
2023-11-01T01:01:16.804Z,25.18
2023-11-01T01:05:18.507Z,25.26
2023-11-01T01:09:19.870Z,24.81
2023-11-01T01:13:21.255Z,25.38
2023-11-01T01:17:22.686Z,25.27
2023-11-01T01:21:24.033Z,25.24
2023-11-01T01:25:25.339Z,24.57
2023-11-01T01:29:26.779Z,25.02
2023-11-01T01:33:28.229Z,24.85
2023-11-01T01:37:29.969Z,24.97
2023-11-01T01:41:31.431Z,25.13
2023-11-01T01:45:32.813Z,25.32
2023-11-01T01:49:40.131Z,25.54
2023-11-01T01:53:48.268Z,25.34
2023-11-01T01:57:50.216Z,25.49
2023-11-01T02:01:53.496Z,25.29
2023-11-01T02:05:55.135Z,25.10
2023-11-01T02:09:56.466Z,24.99
2023-11-01T02:13:58.060Z,25.00
2023-11-01T02:17:59.568Z,25.14
2023-11-01T02:22:01.141Z,25.09
2023-11-01T02:26:03.567Z,25.34
2023-11-01T02:30:06.269Z,25.47
2023-11-01T02:34:09.389Z,25.60
2023-11-01T02:38:12.471Z,25.34
2023-11-01T02:42:13.834Z,25.33
2023-11-01T02:46:15.217Z,25.41
2023-11-01T02:50:18.142Z,25.51
2023-11-01T02:54:19.595Z,25.50
2023-11-01T02:58:24.662Z,25.61
2023-11-01T03:02:26.189Z,25.41
2023-11-01T03:06:27.605Z,25.49
2023-11-01T03:10:28.966Z,25.41
2023-11-01T03:14:30.362Z,25.46
2023-11-01T03:18:31.796Z,23.87
2023-11-01T03:22:34.056Z,24.35
2023-11-01T03:26:35.454Z,24.05
2023-11-01T03:30:36.803Z,24.11
2023-11-01T03:34:39.096Z,24.39
2023-11-01T03:38:44.783Z,23.96
2023-11-01T03:42:46.250Z,24.46
2023-11-01T03:46:47.654Z,24.38
2023-11-01T03:50:49.084Z,23.75
2023-11-01T03:54:50.599Z,24.29
2023-11-01T03:58:52.947Z,23.93
2023-11-01T04:02:54.397Z,24.52
2023-11-01T04:06:55.829Z,24.57
2023-11-01T04:10:57.364Z,24.39
2023-11-01T04:14:58.731Z,24.88
2023-11-01T04:19:00.924Z,24.81
2023-11-01T04:23:02.255Z,24.88
2023-11-01T04:27:03.742Z,24.12
2023-11-01T04:31:05.134Z,25.02
2023-11-01T04:35:15.644Z,24.71
2023-11-01T04:39:17.097Z,23.90
2023-11-01T04:43:21.293Z,24.21
2023-11-01T04:47:22.808Z,24.83
2023-11-01T04:51:24.557Z,24.76
2023-11-01T04:55:25.949Z,24.69
2023-11-01T04:59:31.477Z,25.14
2023-11-01T05:03:36.283Z,25.05
2023-11-01T05:07:37.800Z,24.31
2023-11-01T05:11:39.521Z,24.37
2023-11-01T05:15:41.804Z,24.84
2023-11-01T05:19:43.265Z,24.62
2023-11-01T05:23:45.916Z,24.90
2023-11-01T05:27:47.325Z,24.90
2023-11-01T05:31:48.682Z,24.52
2023-11-01T05:35:50.133Z,25.08
2023-11-01T05:39:51.515Z,25.05
2023-11-01T05:43:52.880Z,24.61
2023-11-01T05:47:54.831Z,25.24
2023-11-01T05:51:56.369Z,25.28
2023-11-01T05:56:04.874Z,24.85
2023-11-01T06:00:11.759Z,24.69
2023-11-01T06:04:13.214Z,24.51
2023-11-01T06:08:14.598Z,24.72
2023-11-01T06:12:16.241Z,24.95
2023-11-01T06:16:18.032Z,24.81
2023-11-01T06:20:19.562Z,24.99
2023-11-01T06:24:20.902Z,25.33
2023-11-01T06:28:22.352Z,25.25
2023-11-01T06:32:23.731Z,25.24
2023-11-01T06:36:25.179Z,25.06
2023-11-01T06:40:26.546Z,25.11
2023-11-01T06:44:28.003Z,24.79
2023-11-01T06:48:29.438Z,24.92
2023-11-01T06:52:30.752Z,25.23
2023-11-01T06:56:32.284Z,25.54
2023-11-01T07:00:34.900Z,25.11
2023-11-01T07:04:36.301Z,25.43
2023-11-01T07:08:38.852Z,25.43
2023-11-01T07:12:40.427Z,25.88
2023-11-01T07:16:43.416Z,25.78
2023-11-01T07:20:44.846Z,25.42
2023-11-01T07:24:46.300Z,25.54
2023-11-01T07:28:47.658Z,25.50
2023-11-01T07:32:49.155Z,25.64
2023-11-01T07:36:50.581Z,25.63
2023-11-01T07:40:51.944Z,25.76
2023-11-01T07:44:53.709Z,25.76
2023-11-01T07:48:55.132Z,25.90
2023-11-01T07:52:56.456Z,25.75
2023-11-01T07:56:57.801Z,26.04
2023-11-01T08:01:00.110Z,26.26
2023-11-01T08:05:01.462Z,25.76
2023-11-01T08:09:02.858Z,26.18
2023-11-01T08:13:04.465Z,26.18
2023-11-01T08:17:05.853Z,26.59
2023-11-01T08:21:07.317Z,26.59
2023-11-01T08:25:09.741Z,26.40
2023-11-01T08:29:11.116Z,26.44
2023-11-01T08:33:12.613Z,25.88
2023-11-01T08:37:13.967Z,25.75
2023-11-01T08:41:17.493Z,26.72
2023-11-01T08:45:19.022Z,26.57
2023-11-01T08:49:21.371Z,26.43
2023-11-01T08:53:23.955Z,26.70
2023-11-01T08:57:28.292Z,27.08
2023-11-01T09:01:29.902Z,26.46
2023-11-01T09:05:31.391Z,27.02
2023-11-01T09:09:33.799Z,26.89
2023-11-01T09:13:35.395Z,26.33
2023-11-01T09:17:36.807Z,26.80
2023-11-01T09:21:39.164Z,25.48
2023-11-01T09:25:40.796Z,26.45
2023-11-01T09:29:42.197Z,26.93
2023-11-01T09:33:49.976Z,26.07
2023-11-01T09:37:52.024Z,26.86
2023-11-01T09:42:02.246Z,26.24
2023-11-01T09:46:04.918Z,26.97
2023-11-01T09:50:07.738Z,26.70
2023-11-01T09:54:12.652Z,25.93
2023-11-01T09:58:19.239Z,27.21
2023-11-01T10:02:20.818Z,27.07
2023-11-01T10:06:23.034Z,26.71
2023-11-01T10:10:25.191Z,27.99
2023-11-01T10:14:29.170Z,27.22
2023-11-01T10:18:30.780Z,25.94
2023-11-01T10:22:33.687Z,27.29
2023-11-01T10:26:36.323Z,27.26
2023-11-01T10:30:37.687Z,27.21
2023-11-01T10:34:39.166Z,26.93
2023-11-01T10:38:42.343Z,27.20
2023-11-01T10:42:45.386Z,27.08
2023-11-01T10:46:46.866Z,26.89
2023-11-01T10:50:48.339Z,27.77
2023-11-01T10:54:52.047Z,27.56
2023-11-01T10:58:59.971Z,26.87
2023-11-01T11:03:12.588Z,27.20
2023-11-01T11:07:28.105Z,27.50
2023-11-01T11:11:29.479Z,27.41
2023-11-01T11:15:49.718Z,27.74
2023-11-01T11:20:06.228Z,28.02
2023-11-01T11:24:32.757Z,27.26
2023-11-01T11:28:38.365Z,27.77
2023-11-01T11:32:40.032Z,27.64
2023-11-01T11:37:05.029Z,26.67
2023-11-01T11:41:12.603Z,27.22
2023-11-01T11:45:25.342Z,26.62
2023-11-01T11:49:29.980Z,27.16
2023-11-01T11:53:35.721Z,26.68
2023-11-01T11:57:37.171Z,26.58
2023-11-01T12:01:39.416Z,27.34
2023-11-01T12:05:41.177Z,26.56
2023-11-01T12:09:51.182Z,27.50
2023-11-01T12:13:52.577Z,26.79
2023-11-01T12:18:11.280Z,26.97
2023-11-01T12:22:12.849Z,26.54
2023-11-01T12:26:14.203Z,26.79
2023-11-01T12:30:22.659Z,27.34
2023-11-01T12:34:23.982Z,27.52
2023-11-01T12:38:25.465Z,27.47
2023-11-01T12:42:29.347Z,26.54
2023-11-01T12:46:30.995Z,27.51
2023-11-01T12:50:37.598Z,26.80
2023-11-01T12:54:44.738Z,27.44
2023-11-01T12:58:46.073Z,27.16
2023-11-01T13:02:47.635Z,27.70
2023-11-01T13:06:49.425Z,26.62
2023-11-01T13:10:52.141Z,28.28
2023-11-01T13:14:53.794Z,27.97
2023-11-01T13:18:55.242Z,27.66
2023-11-01T13:22:56.672Z,27.62
2023-11-01T13:26:58.030Z,27.24
2023-11-01T13:30:59.520Z,28.37
2023-11-01T13:35:01.111Z,27.20
2023-11-01T13:39:02.997Z,26.73
2023-11-01T13:43:04.472Z,27.25
2023-11-01T13:47:05.830Z,27.92
2023-11-01T13:51:07.998Z,26.87
2023-11-01T13:55:10.585Z,27.99
2023-11-01T13:59:12.070Z,26.24
2023-11-01T14:03:14.662Z,26.77
2023-11-01T14:07:16.379Z,25.74
2023-11-01T14:11:18.803Z,26.76
2023-11-01T14:15:20.263Z,26.18
2023-11-01T14:19:21.624Z,27.17
2023-11-01T14:23:23.157Z,27.22
2023-11-01T14:27:24.526Z,26.54
2023-11-01T14:31:26.061Z,26.24
2023-11-01T14:35:27.673Z,26.62
2023-11-01T14:39:29.057Z,26.91
2023-11-01T14:43:30.414Z,26.77
2023-11-01T14:47:32.315Z,25.87
2023-11-01T14:51:33.753Z,26.16
2023-11-01T14:55:35.340Z,25.98
2023-11-01T14:59:36.853Z,26.25
2023-11-01T15:03:41.669Z,26.49
2023-11-01T15:07:43.096Z,27.34
2023-11-01T15:11:46.127Z,26.66
2023-11-01T15:15:47.496Z,25.90
2023-11-01T15:19:49.518Z,27.26
2023-11-01T15:23:50.966Z,26.35
2023-11-01T15:27:52.344Z,26.58
2023-11-01T15:31:54.480Z,26.29
2023-11-01T15:35:55.936Z,26.56
2023-11-01T15:39:57.343Z,26.94
2023-11-01T15:43:58.726Z,27.47
2023-11-01T15:48:00.161Z,25.96
2023-11-01T15:52:02.961Z,26.33
2023-11-01T15:56:05.235Z,26.96
2023-11-01T16:00:07.490Z,26.67
2023-11-01T16:04:09.000Z,26.91
2023-11-01T16:08:10.494Z,26.61
2023-11-01T16:12:11.858Z,27.02
2023-11-01T16:16:13.561Z,26.80
2023-11-01T16:20:15.098Z,26.36
2023-11-01T16:24:16.585Z,26.76
2023-11-01T16:28:17.916Z,26.63
2023-11-01T16:32:19.400Z,26.93
2023-11-01T16:36:20.900Z,26.55
2023-11-01T16:40:22.382Z,26.81
2023-11-01T16:44:23.784Z,26.69
2023-11-01T16:48:25.257Z,27.02
2023-11-01T16:52:27.290Z,26.94
2023-11-01T16:56:28.791Z,25.81
2023-11-01T17:00:30.125Z,26.95
2023-11-01T17:04:34.040Z,26.17
2023-11-01T17:08:36.057Z,26.45
2023-11-01T17:12:37.464Z,26.29
2023-11-01T17:16:38.882Z,26.93
2023-11-01T17:20:40.314Z,27.12
2023-11-01T17:24:41.681Z,26.40
2023-11-01T17:28:44.517Z,27.15
2023-11-01T17:32:45.940Z,26.24
2023-11-01T17:36:47.532Z,26.22
2023-11-01T17:40:59.216Z,26.49
2023-11-01T17:45:00.867Z,25.93
2023-11-01T17:49:03.062Z,26.92
2023-11-01T17:53:04.802Z,26.61
2023-11-01T17:57:06.792Z,26.26
2023-11-01T18:01:08.403Z,26.12
2023-11-01T18:05:31.944Z,26.35
2023-11-01T18:09:33.700Z,25.15
2023-11-01T18:13:36.845Z,25.11
2023-11-01T18:17:38.278Z,25.61
2023-11-01T18:21:39.718Z,26.05
2023-11-01T18:26:00.889Z,25.81
2023-11-01T18:30:02.240Z,25.51
2023-11-01T18:34:05.506Z,25.97
2023-11-01T18:38:11.211Z,25.75
2023-11-01T18:42:36.173Z,25.78
2023-11-01T18:46:37.643Z,25.63
2023-11-01T18:50:39.033Z,24.95
2023-11-01T18:54:42.125Z,25.17
2023-11-01T18:58:43.451Z,25.77
2023-11-01T19:03:03.741Z,25.46
2023-11-01T19:07:09.290Z,26.09
2023-11-01T19:11:10.712Z,24.83
2023-11-01T19:15:57.933Z,25.24
2023-11-01T19:19:59.314Z,25.48
2023-11-01T19:24:02.170Z,25.35
2023-11-01T19:28:05.545Z,25.81
2023-11-01T19:32:07.147Z,24.99
2023-11-01T19:36:14.140Z,24.90
2023-11-01T19:40:17.748Z,25.81
2023-11-01T19:44:19.955Z,25.01
2023-11-01T19:48:24.955Z,24.99
2023-11-01T19:52:26.333Z,24.21
2023-11-01T19:56:27.973Z,24.53
2023-11-01T20:00:30.985Z,24.99
2023-11-01T20:04:32.955Z,24.67
2023-11-01T20:08:35.090Z,24.79
2023-11-01T20:12:37.303Z,24.06
2023-11-01T20:16:38.680Z,24.17
2023-11-01T20:20:40.677Z,24.59
2023-11-01T20:24:43.215Z,24.37
2023-11-01T20:28:44.619Z,24.35
2023-11-01T20:32:46.307Z,24.38
2023-11-01T20:36:47.715Z,24.40
2023-11-01T20:40:49.312Z,24.79
2023-11-01T20:44:51.389Z,24.15
2023-11-01T20:48:52.717Z,23.86
2023-11-01T20:52:54.119Z,24.93
2023-11-01T20:56:55.664Z,24.34
2023-11-01T21:01:00.292Z,24.31
2023-11-01T21:05:02.200Z,24.18
2023-11-01T21:09:06.459Z,24.46
2023-11-01T21:13:08.900Z,23.83
2023-11-01T21:17:10.911Z,23.85
2023-11-01T21:21:12.335Z,23.98
2023-11-01T21:25:14.126Z,24.54
2023-11-01T21:29:15.617Z,24.95
2023-11-01T21:33:21.898Z,24.48
2023-11-01T21:37:23.532Z,24.36
2023-11-01T21:41:24.926Z,24.55
2023-11-01T21:45:47.379Z,24.61
2023-11-01T21:49:48.854Z,24.77
2023-11-01T21:53:50.323Z,23.67
2023-11-01T21:57:54.588Z,24.01
2023-11-01T22:01:56.084Z,24.26
2023-11-01T22:05:57.609Z,24.12
2023-11-01T22:10:00.116Z,23.98
2023-11-01T22:14:30.777Z,23.99
2023-11-01T22:18:32.319Z,23.96
2023-11-01T22:22:36.782Z,24.41
2023-11-01T22:26:38.332Z,24.66
2023-11-01T22:30:39.799Z,23.99
2023-11-01T22:34:41.704Z,24.35
2023-11-01T22:38:43.026Z,24.41
2023-11-01T22:42:45.544Z,24.55
2023-11-01T22:46:46.859Z,24.20
2023-11-01T22:50:48.214Z,24.81
2023-11-01T22:54:49.614Z,24.18
2023-11-01T22:58:51.028Z,24.97
2023-11-01T23:02:52.744Z,24.44
2023-11-01T23:06:54.156Z,23.63
2023-11-01T23:10:55.511Z,23.81
2023-11-01T23:14:56.845Z,24.14
2023-11-01T23:18:58.595Z,24.42
2023-11-01T23:22:59.990Z,24.23
2023-11-01T23:27:05.904Z,23.87
2023-11-01T23:31:11.361Z,24.14
2023-11-01T23:35:15.796Z,23.85
2023-11-01T23:39:31.126Z,23.79
2023-11-01T23:43:34.043Z,24.24
2023-11-01T23:47:58.542Z,23.95
2023-11-01T23:52:00.061Z,23.94
2023-11-01T23:56:02.821Z,24.46
